sensor_id;sensor_type;location;lat;lon;timestamp;P1;durP1;ratioP1;P2;durP2;ratioP2
76123;SDS011;65173;48.066;20.976;2024-03-17T00:02:48;66.55;;;26.60;;
76123;SDS011;65173;48.066;20.976;2024-03-17T00:05:54;99.93;;;35.90;;
76123;SDS011;65173;48.066;20.976;2024-03-17T00:08:56;41.72;;;21.02;;
76123;SDS011;65173;48.066;20.976;2024-03-17T00:11:57;79.85;;;27.85;;
76123;SDS011;65173;48.066;20.976;2024-03-17T00:14:59;66.22;;;24.88;;
76123;SDS011;65173;48.066;20.976;2024-03-17T00:18:00;55.90;;;21.58;;
76123;SDS011;65173;48.066;20.976;2024-03-17T00:21:01;39.85;;;20.42;;
76123;SDS011;65173;48.066;20.976;2024-03-17T00:24:03;47.00;;;22.73;;
76123;SDS011;65173;48.066;20.976;2024-03-17T00:27:04;29.63;;;15.57;;
76123;SDS011;65173;48.066;20.976;2024-03-17T00:30:06;44.70;;;18.45;;
76123;SDS011;65173;48.066;20.976;2024-03-17T00:33:12;33.53;;;14.85;;
76123;SDS011;65173;48.066;20.976;2024-03-17T00:36:13;39.93;;;20.30;;
76123;SDS011;65173;48.066;20.976;2024-03-17T00:39:15;47.38;;;16.95;;
76123;SDS011;65173;48.066;20.976;2024-03-17T00:42:17;40.35;;;18.00;;
76123;SDS011;65173;48.066;20.976;2024-03-17T00:45:18;49.25;;;17.45;;
76123;SDS011;65173;48.066;20.976;2024-03-17T00:48:20;37.00;;;17.00;;
76123;SDS011;65173;48.066;20.976;2024-03-17T00:51:21;78.32;;;25.75;;
76123;SDS011;65173;48.066;20.976;2024-03-17T00:54:22;73.72;;;26.48;;
76123;SDS011;65173;48.066;20.976;2024-03-17T00:57:23;102.17;;;25.87;;
76123;SDS011;65173;48.066;20.976;2024-03-17T01:00:25;57.88;;;22.17;;
76123;SDS011;65173;48.066;20.976;2024-03-17T01:03:26;41.58;;;16.35;;
76123;SDS011;65173;48.066;20.976;2024-03-17T01:06:28;44.67;;;18.53;;
76123;SDS011;65173;48.066;20.976;2024-03-17T01:09:29;36.42;;;17.58;;
76123;SDS011;65173;48.066;20.976;2024-03-17T01:12:31;46.17;;;20.17;;
76123;SDS011;65173;48.066;20.976;2024-03-17T01:15:32;41.28;;;17.38;;
76123;SDS011;65173;48.066;20.976;2024-03-17T01:18:33;39.25;;;20.98;;
76123;SDS011;65173;48.066;20.976;2024-03-17T01:21:35;44.25;;;18.95;;
76123;SDS011;65173;48.066;20.976;2024-03-17T01:24:37;40.60;;;18.88;;
76123;SDS011;65173;48.066;20.976;2024-03-17T01:27:40;51.40;;;21.67;;
76123;SDS011;65173;48.066;20.976;2024-03-17T01:30:41;54.70;;;21.45;;
76123;SDS011;65173;48.066;20.976;2024-03-17T01:33:43;49.78;;;20.33;;
76123;SDS011;65173;48.066;20.976;2024-03-17T01:36:44;45.20;;;21.17;;
76123;SDS011;65173;48.066;20.976;2024-03-17T01:39:45;44.05;;;19.23;;
76123;SDS011;65173;48.066;20.976;2024-03-17T01:42:46;43.75;;;19.40;;
76123;SDS011;65173;48.066;20.976;2024-03-17T01:45:47;44.45;;;20.00;;
76123;SDS011;65173;48.066;20.976;2024-03-17T01:48:48;41.08;;;20.42;;
76123;SDS011;65173;48.066;20.976;2024-03-17T01:51:49;42.42;;;20.52;;
76123;SDS011;65173;48.066;20.976;2024-03-17T01:54:51;43.60;;;20.63;;
76123;SDS011;65173;48.066;20.976;2024-03-17T01:57:52;42.07;;;20.73;;
76123;SDS011;65173;48.066;20.976;2024-03-17T02:00:53;56.95;;;22.38;;
76123;SDS011;65173;48.066;20.976;2024-03-17T02:03:55;57.30;;;24.17;;
76123;SDS011;65173;48.066;20.976;2024-03-17T02:06:56;47.40;;;20.90;;
76123;SDS011;65173;48.066;20.976;2024-03-17T02:09:57;53.67;;;22.88;;
76123;SDS011;65173;48.066;20.976;2024-03-17T02:12:58;56.40;;;22.65;;
76123;SDS011;65173;48.066;20.976;2024-03-17T02:16:00;55.75;;;25.02;;
76123;SDS011;65173;48.066;20.976;2024-03-17T02:19:01;47.67;;;21.50;;
76123;SDS011;65173;48.066;20.976;2024-03-17T02:22:02;61.28;;;24.20;;
76123;SDS011;65173;48.066;20.976;2024-03-17T02:25:04;51.95;;;22.42;;
76123;SDS011;65173;48.066;20.976;2024-03-17T02:28:09;64.83;;;24.73;;
76123;SDS011;65173;48.066;20.976;2024-03-17T02:31:10;54.65;;;23.33;;
76123;SDS011;65173;48.066;20.976;2024-03-17T02:34:12;60.17;;;23.58;;
76123;SDS011;65173;48.066;20.976;2024-03-17T02:37:13;46.50;;;20.60;;
76123;SDS011;65173;48.066;20.976;2024-03-17T02:40:14;46.08;;;20.80;;
76123;SDS011;65173;48.066;20.976;2024-03-17T02:43:17;38.90;;;19.02;;
76123;SDS011;65173;48.066;20.976;2024-03-17T02:46:18;46.78;;;19.90;;
76123;SDS011;65173;48.066;20.976;2024-03-17T02:49:19;52.28;;;19.60;;
76123;SDS011;65173;48.066;20.976;2024-03-17T02:52:21;47.20;;;21.65;;
76123;SDS011;65173;48.066;20.976;2024-03-17T02:55:22;47.33;;;21.95;;
76123;SDS011;65173;48.066;20.976;2024-03-17T02:58:23;52.90;;;22.97;;
76123;SDS011;65173;48.066;20.976;2024-03-17T03:01:24;50.83;;;22.50;;
76123;SDS011;65173;48.066;20.976;2024-03-17T03:04:26;56.92;;;26.08;;
76123;SDS011;65173;48.066;20.976;2024-03-17T03:07:27;55.13;;;21.77;;
76123;SDS011;65173;48.066;20.976;2024-03-17T03:10:28;46.90;;;21.55;;
76123;SDS011;65173;48.066;20.976;2024-03-17T03:13:30;50.47;;;22.23;;
76123;SDS011;65173;48.066;20.976;2024-03-17T03:16:31;49.20;;;22.17;;
76123;SDS011;65173;48.066;20.976;2024-03-17T03:19:32;40.97;;;19.55;;
76123;SDS011;65173;48.066;20.976;2024-03-17T03:22:33;52.05;;;22.40;;
76123;SDS011;65173;48.066;20.976;2024-03-17T03:25:35;49.83;;;22.00;;
76123;SDS011;65173;48.066;20.976;2024-03-17T03:28:36;40.87;;;19.37;;
76123;SDS011;65173;48.066;20.976;2024-03-17T03:31:37;59.15;;;24.48;;
76123;SDS011;65173;48.066;20.976;2024-03-17T03:34:40;44.20;;;19.90;;
76123;SDS011;65173;48.066;20.976;2024-03-17T03:37:41;53.47;;;22.67;;
76123;SDS011;65173;48.066;20.976;2024-03-17T03:40:42;47.50;;;22.98;;
76123;SDS011;65173;48.066;20.976;2024-03-17T03:43:44;55.83;;;22.75;;
76123;SDS011;65173;48.066;20.976;2024-03-17T03:46:47;68.38;;;25.48;;
76123;SDS011;65173;48.066;20.976;2024-03-17T03:49:48;67.03;;;26.63;;
76123;SDS011;65173;48.066;20.976;2024-03-17T03:52:49;65.43;;;25.60;;
76123;SDS011;65173;48.066;20.976;2024-03-17T03:55:50;56.17;;;20.30;;
76123;SDS011;65173;48.066;20.976;2024-03-17T03:58:52;52.40;;;22.03;;
76123;SDS011;65173;48.066;20.976;2024-03-17T04:01:53;47.65;;;19.13;;
76123;SDS011;65173;48.066;20.976;2024-03-17T04:04:55;56.58;;;22.10;;
76123;SDS011;65173;48.066;20.976;2024-03-17T04:07:56;48.13;;;19.50;;
76123;SDS011;65173;48.066;20.976;2024-03-17T04:10:57;41.53;;;16.85;;
76123;SDS011;65173;48.066;20.976;2024-03-17T04:13:58;48.83;;;18.63;;
76123;SDS011;65173;48.066;20.976;2024-03-17T04:17:01;33.80;;;18.23;;
76123;SDS011;65173;48.066;20.976;2024-03-17T04:20:05;39.70;;;17.80;;
76123;SDS011;65173;48.066;20.976;2024-03-17T04:23:09;50.10;;;21.20;;
76123;SDS011;65173;48.066;20.976;2024-03-17T04:26:10;49.83;;;23.80;;
76123;SDS011;65173;48.066;20.976;2024-03-17T04:29:11;54.50;;;23.13;;
76123;SDS011;65173;48.066;20.976;2024-03-17T04:32:13;66.70;;;23.15;;
76123;SDS011;65173;48.066;20.976;2024-03-17T04:35:14;48.70;;;22.17;;
76123;SDS011;65173;48.066;20.976;2024-03-17T04:38:15;41.03;;;19.17;;
76123;SDS011;65173;48.066;20.976;2024-03-17T04:41:17;39.85;;;18.42;;
76123;SDS011;65173;48.066;20.976;2024-03-17T04:44:19;49.67;;;19.30;;
76123;SDS011;65173;48.066;20.976;2024-03-17T04:47:20;43.08;;;19.20;;
76123;SDS011;65173;48.066;20.976;2024-03-17T04:50:21;44.13;;;19.67;;
76123;SDS011;65173;48.066;20.976;2024-03-17T04:53:22;39.70;;;18.55;;
76123;SDS011;65173;48.066;20.976;2024-03-17T04:56:24;39.88;;;17.42;;
76123;SDS011;65173;48.066;20.976;2024-03-17T04:59:25;27.57;;;15.23;;
76123;SDS011;65173;48.066;20.976;2024-03-17T05:02:26;43.15;;;17.35;;
76123;SDS011;65173;48.066;20.976;2024-03-17T05:05:28;29.58;;;16.30;;
76123;SDS011;65173;48.066;20.976;2024-03-17T05:08:30;36.10;;;16.90;;
76123;SDS011;65173;48.066;20.976;2024-03-17T05:11:32;34.67;;;17.13;;
76123;SDS011;65173;48.066;20.976;2024-03-17T05:14:36;37.67;;;17.45;;
76123;SDS011;65173;48.066;20.976;2024-03-17T05:17:37;38.60;;;19.15;;
76123;SDS011;65173;48.066;20.976;2024-03-17T05:20:38;32.10;;;16.05;;
76123;SDS011;65173;48.066;20.976;2024-03-17T05:23:39;33.00;;;15.45;;
76123;SDS011;65173;48.066;20.976;2024-03-17T05:26:40;32.63;;;16.33;;
76123;SDS011;65173;48.066;20.976;2024-03-17T05:29:44;34.30;;;17.07;;
76123;SDS011;65173;48.066;20.976;2024-03-17T05:32:46;35.30;;;16.63;;
76123;SDS011;65173;48.066;20.976;2024-03-17T05:38:53;28.77;;;15.00;;
76123;SDS011;65173;48.066;20.976;2024-03-17T05:41:55;37.42;;;17.65;;
76123;SDS011;65173;48.066;20.976;2024-03-17T05:44:56;32.65;;;16.50;;
76123;SDS011;65173;48.066;20.976;2024-03-17T05:47:57;35.65;;;15.68;;
76123;SDS011;65173;48.066;20.976;2024-03-17T05:51:02;32.47;;;15.55;;
76123;SDS011;65173;48.066;20.976;2024-03-17T05:54:06;36.28;;;16.45;;
76123;SDS011;65173;48.066;20.976;2024-03-17T05:57:07;36.50;;;15.75;;
76123;SDS011;65173;48.066;20.976;2024-03-17T06:00:10;33.93;;;16.57;;
76123;SDS011;65173;48.066;20.976;2024-03-17T06:03:16;35.67;;;19.73;;
76123;SDS011;65173;48.066;20.976;2024-03-17T06:06:18;39.60;;;18.95;;
76123;SDS011;65173;48.066;20.976;2024-03-17T06:09:19;43.37;;;17.63;;
76123;SDS011;65173;48.066;20.976;2024-03-17T06:12:21;35.35;;;15.77;;
76123;SDS011;65173;48.066;20.976;2024-03-17T06:15:22;36.03;;;17.77;;
76123;SDS011;65173;48.066;20.976;2024-03-17T06:18:24;31.30;;;16.30;;
76123;SDS011;65173;48.066;20.976;2024-03-17T06:21:25;41.00;;;18.75;;
76123;SDS011;65173;48.066;20.976;2024-03-17T06:24:27;37.05;;;15.98;;
76123;SDS011;65173;48.066;20.976;2024-03-17T06:27:29;43.83;;;17.85;;
76123;SDS011;65173;48.066;20.976;2024-03-17T06:30:31;39.00;;;15.97;;
76123;SDS011;65173;48.066;20.976;2024-03-17T06:33:33;34.33;;;16.20;;
76123;SDS011;65173;48.066;20.976;2024-03-17T06:36:35;34.10;;;15.23;;
76123;SDS011;65173;48.066;20.976;2024-03-17T06:39:36;32.40;;;13.80;;
76123;SDS011;65173;48.066;20.976;2024-03-17T06:42:37;41.47;;;16.20;;
76123;SDS011;65173;48.066;20.976;2024-03-17T06:45:39;28.15;;;13.02;;
76123;SDS011;65173;48.066;20.976;2024-03-17T06:48:40;28.48;;;14.07;;
76123;SDS011;65173;48.066;20.976;2024-03-17T06:51:42;29.55;;;14.30;;
76123;SDS011;65173;48.066;20.976;2024-03-17T06:54:44;35.15;;;14.23;;
76123;SDS011;65173;48.066;20.976;2024-03-17T06:57:50;34.63;;;16.02;;
76123;SDS011;65173;48.066;20.976;2024-03-17T07:00:52;31.63;;;14.63;;
76123;SDS011;65173;48.066;20.976;2024-03-17T07:03:54;35.55;;;15.35;;
76123;SDS011;65173;48.066;20.976;2024-03-17T07:06:55;36.45;;;14.75;;
76123;SDS011;65173;48.066;20.976;2024-03-17T07:09:56;29.53;;;14.03;;
76123;SDS011;65173;48.066;20.976;2024-03-17T07:12:58;30.40;;;14.02;;
76123;SDS011;65173;48.066;20.976;2024-03-17T07:15:59;28.35;;;13.85;;
76123;SDS011;65173;48.066;20.976;2024-03-17T07:19:01;30.23;;;13.70;;
76123;SDS011;65173;48.066;20.976;2024-03-17T07:22:03;28.75;;;14.20;;
76123;SDS011;65173;48.066;20.976;2024-03-17T07:25:04;46.70;;;19.30;;
76123;SDS011;65173;48.066;20.976;2024-03-17T07:28:05;40.85;;;17.65;;
76123;SDS011;65173;48.066;20.976;2024-03-17T07:31:08;30.83;;;14.30;;
76123;SDS011;65173;48.066;20.976;2024-03-17T07:34:09;20.75;;;10.10;;
76123;SDS011;65173;48.066;20.976;2024-03-17T07:37:10;8.00;;;3.80;;
76123;SDS011;65173;48.066;20.976;2024-03-17T07:40:12;4.80;;;2.57;;
76123;SDS011;65173;48.066;20.976;2024-03-17T07:43:13;6.90;;;2.95;;
76123;SDS011;65173;48.066;20.976;2024-03-17T07:46:14;3.15;;;1.27;;
76123;SDS011;65173;48.066;20.976;2024-03-17T07:49:15;2.47;;;1.10;;
76123;SDS011;65173;48.066;20.976;2024-03-17T07:52:17;1.35;;;0.93;;
76123;SDS011;65173;48.066;20.976;2024-03-17T07:55:18;0.88;;;0.65;;
76123;SDS011;65173;48.066;20.976;2024-03-17T07:58:19;0.25;;;0.25;;
76123;SDS011;65173;48.066;20.976;2024-03-17T08:01:21;0.70;;;0.33;;
76123;SDS011;65173;48.066;20.976;2024-03-17T08:04:22;0.45;;;0.45;;
76123;SDS011;65173;48.066;20.976;2024-03-17T08:07:23;0.30;;;0.25;;
76123;SDS011;65173;48.066;20.976;2024-03-17T08:10:24;0.30;;;0.30;;
76123;SDS011;65173;48.066;20.976;2024-03-17T08:13:25;1.55;;;0.15;;
76123;SDS011;65173;48.066;20.976;2024-03-17T08:16:26;2.90;;;0.77;;
76123;SDS011;65173;48.066;20.976;2024-03-17T08:19:29;0.20;;;0.10;;
76123;SDS011;65173;48.066;20.976;2024-03-17T08:22:30;0.17;;;0.17;;
76123;SDS011;65173;48.066;20.976;2024-03-17T08:25:31;0.45;;;0.10;;
76123;SDS011;65173;48.066;20.976;2024-03-17T08:28:33;2.53;;;1.27;;
76123;SDS011;65173;48.066;20.976;2024-03-17T08:31:34;1.97;;;0.80;;
76123;SDS011;65173;48.066;20.976;2024-03-17T08:34:35;1.05;;;0.45;;
76123;SDS011;65173;48.066;20.976;2024-03-17T08:37:36;1.85;;;0.88;;
76123;SDS011;65173;48.066;20.976;2024-03-17T08:40:37;0.83;;;0.70;;
76123;SDS011;65173;48.066;20.976;2024-03-17T08:43:39;1.63;;;0.85;;
76123;SDS011;65173;48.066;20.976;2024-03-17T08:46:42;1.20;;;0.40;;
76123;SDS011;65173;48.066;20.976;2024-03-17T08:49:43;0.52;;;0.40;;
76123;SDS011;65173;48.066;20.976;2024-03-17T08:52:45;1.08;;;0.60;;
76123;SDS011;65173;48.066;20.976;2024-03-17T08:55:46;0.70;;;0.60;;
76123;SDS011;65173;48.066;20.976;2024-03-17T08:58:47;2.58;;;0.88;;
76123;SDS011;65173;48.066;20.976;2024-03-17T09:01:49;1.27;;;0.73;;
76123;SDS011;65173;48.066;20.976;2024-03-17T09:04:50;1.73;;;0.45;;
76123;SDS011;65173;48.066;20.976;2024-03-17T09:07:51;0.93;;;0.50;;
76123;SDS011;65173;48.066;20.976;2024-03-17T09:10:53;4.47;;;1.30;;
